Latest Weather Observations for Kiama

IDN60801

Issued at 10:52 am EST Tuesday 26 May 2020 (issued every 10 minutes, with the page automatically refreshed every 10 minutes)

About weather observations | Map of weather stations | Latest weather observations for NSW | Other Formats
Station Details ID: 068242 Name: KIAMA (BOMBO HEADLAND) Lat: -34.65 Lon: 150.86 Height: 15.5 m
Data from the previous 72 hours. | See also: Recent months at Kiama
Date/Time
EST
Temp
°C
App
Temp
°C
Dew
Point
°C
Rel
Hum
%
Delta-T
°C
Wind Press
QNH
hPa
Press
MSL
hPa
Rain since
9am
mm
Dir  Spd
km/h
Gust
km/h
Spd
kts
Gust
kts
26/10:30am 15.3 13.8 13.2 87 1.2 S 13 19 7 10 - - 2.6
26/10:00am 15.0 11.0 12.9 87 1.2 S 26 33 14 18 - - 2.2
26/09:30am 15.3 12.1 13.2 87 1.2 S 22 28 12 15 - - 0.6
26/09:00am 14.9 10.8 12.6 86 1.3 SSW 26 32 14 17 - - 5.2
26/08:30am 14.6 9.7 12.5 87 1.1 S 30 41 16 22 - - 5.2
26/08:00am 14.1 8.6 12.0 87 1.1 SSW 32 43 17 23 - - 5.0
26/07:30am 13.9 7.8 11.8 87 1.1 SSW 35 44 19 24 - - 4.8
26/07:00am 13.8 6.9 11.5 86 1.2 SSW 39 52 21 28 - - 4.2
26/06:30am 13.9 6.9 11.2 84 1.4 SSW 39 52 21 28 - - 4.0
26/06:12am 13.8 6.8 11.1 84 1.4 SSW 39 59 21 32 - - 4.0
26/06:00am 13.9 7.6 11.2 84 1.4 SSW 35 46 19 25 - - 4.0
26/05:30am 13.7 6.7 11.2 85 1.3 SSW 39 52 21 28 - - 4.0
26/05:00am 13.5 6.5 11.2 86 1.2 S 39 54 21 29 - - 4.0
26/04:44am 13.4 5.9 10.9 85 1.3 S 41 59 22 32 - - 4.0
26/04:30am 13.4 5.0 10.9 85 1.3 S 46 59 25 32 - - 4.0
26/04:10am 13.5 5.5 11.0 85 1.3 S 44 67 24 36 - - 4.0
26/04:00am 13.5 5.5 11.2 86 1.2 S 44 57 24 31 - - 4.0
26/03:30am 13.3 5.3 11.2 87 1.1 S 44 61 24 33 - - 3.8
26/03:19am 13.3 5.5 11.2 87 1.1 SSW 43 61 23 33 - - 3.8
26/03:00am 13.6 5.9 11.5 87 1.1 SSW 43 57 23 31 - - 3.8
26/02:47am 13.6 6.3 11.7 88 1.0 SSW 41 63 22 34 - - 3.8
26/02:30am 13.8 6.2 11.8 88 1.1 SSW 43 57 23 31 - - 3.8
26/02:00am 13.5 6.5 11.4 87 1.1 SSW 39 50 21 27 - - 3.6
26/01:39am 13.3 6.3 11.2 87 1.1 SSW 39 57 21 31 - - 3.4
26/01:30am 13.7 6.5 11.8 88 1.0 SSW 41 57 22 31 - - 3.2
26/01:00am 13.5 6.5 11.4 87 1.1 SSW 39 52 21 28 - - 3.0
26/12:45am 13.5 6.2 11.4 87 1.1 SSW 41 59 22 32 - - 2.8
26/12:30am 13.6 5.9 11.5 87 1.1 SSW 43 57 23 31 - - 2.8
26/12:00am 13.4 7.2 11.3 87 1.1 SSW 35 57 19 31 - - 2.8
 
Date/Time
EST
Temp
°C
App
Temp
°C
Dew
Point
°C
Rel
Hum
%
Delta-T
°C
Wind Press
QNH
hPa
Press
MSL
hPa
Rain since
9am
mm
Dir  Spd
km/h
Gust
km/h
Spd
kts
Gust
kts
25/11:42pm 13.3 7.0 11.2 87 1.1 SSW 35 56 19 30 - - 2.4
25/11:30pm 13.5 6.9 11.4 87 1.1 SSW 37 54 20 29 - - 2.2
25/11:00pm 13.6 5.7 11.3 86 1.2 S 44 57 24 31 - - 2.0
25/10:30pm 13.7 5.7 11.2 85 1.3 SSW 44 59 24 32 - - 1.8
25/10:00pm 13.8 5.9 11.5 86 1.2 SSW 44 63 24 34 - - 1.8
25/09:36pm 13.9 6.3 11.8 87 1.1 SSW 43 63 23 34 - - 1.6
25/09:30pm 13.8 6.5 11.7 87 1.1 SSW 41 54 22 29 - - 1.4
25/09:00pm 14.1 6.6 12.0 87 1.1 SSW 43 63 23 34 - - 1.4
25/08:46pm 14.1 6.9 12.0 87 1.1 SSW 41 59 22 32 - - 1.4
25/08:30pm 14.1 6.9 12.0 87 1.1 SSW 41 52 22 28 - - 1.2
25/08:00pm 14.2 6.7 12.1 87 1.1 SSW 43 56 23 30 - - 1.0
25/07:32pm 14.3 6.9 12.3 88 1.1 S 43 63 23 34 - - 1.0
25/07:30pm 14.1 6.4 12.1 88 1.1 SSW 44 63 24 34 - - 1.0
25/07:21pm 14.1 7.7 12.1 88 1.1 SSW 37 57 20 31 - - 1.0
25/07:00pm 14.1 7.3 12.0 87 1.1 S 39 54 21 29 - - 0.8
25/06:30pm 14.3 7.2 12.2 87 1.1 S 41 59 22 32 - - 0.8
25/06:21pm 14.3 7.5 12.0 86 1.2 S 39 59 21 32 - - 0.8
25/06:00pm 14.4 6.9 12.1 86 1.2 SSW 43 57 23 31 - - 0.6
25/05:30pm 14.7 7.2 12.2 85 1.4 SSW 43 61 23 33 - - 0.6
25/05:14pm 14.8 7.8 12.5 86 1.3 SSW 41 59 22 32 - - 0.6
25/05:00pm 14.4 6.9 12.1 86 1.2 S 43 59 23 32 - - 0.6
25/04:30pm 14.3 6.2 12.2 87 1.1 S 46 59 25 32 - - 0.6
25/04:19pm 14.1 6.4 12.0 87 1.1 SSW 44 63 24 34 - - 0.6
25/04:00pm 14.1 6.5 11.8 86 1.2 SSW 43 54 23 29 - - 0.4
25/03:30pm 14.2 6.1 11.9 86 1.2 S 46 67 25 36 - - 0.4
25/03:00pm 14.4 5.5 11.9 85 1.3 S 50 69 27 37 - - 0.4
25/02:30pm 14.5 5.2 11.7 83 1.5 S 52 74 28 40 - - 0.4
25/02:08pm 14.7 5.3 11.5 81 1.7 S 52 76 28 41 - - 0.4
25/02:00pm 14.5 5.4 11.3 81 1.7 S 50 67 27 36 - - 0.4
25/01:30pm 14.4 4.9 11.2 81 1.7 S 52 74 28 40 - - 0.4
25/01:00pm 14.4 4.8 10.8 79 1.9 S 52 70 28 38 - - 0.4
25/12:30pm 14.7 5.2 11.1 79 1.9 S 52 74 28 40 - - 0.4
25/12:00pm 14.5 5.5 11.5 82 1.6 SSW 50 70 27 38 - - 0.4
25/11:30am 13.9 5.9 11.2 84 1.4 SSW 44 67 24 36 - - 0.4
25/11:00am 13.9 6.2 11.6 86 1.2 SSW 43 65 23 35 - - 0.4
25/10:34am 13.5 6.0 11.0 85 1.3 SSW 41 59 22 32 - - 0.4
25/10:30am 13.5 6.4 11.0 85 1.3 SSW 39 54 21 29 - - 0.4
25/10:19am 13.8 6.8 11.3 85 1.3 SSW 39 57 21 31 - - 0.4
25/10:00am 13.4 5.5 10.9 85 1.3 SSW 43 56 23 30 - - 0.2
25/09:30am 13.4 6.0 11.1 86 1.2 SSW 41 57 22 31 - - 0.2
25/09:00am 13.1 6.3 10.6 85 1.3 SSW 37 46 20 25 - - 0.8
25/08:48am 13.1 6.3 10.5 84 1.4 SSW 37 57 20 31 - - 0.8
25/08:30am 13.2 5.6 10.6 84 1.4 SSW 41 56 22 30 - - 0.8
25/08:09am 13.1 5.5 10.5 84 1.4 SSW 41 61 22 33 - - 0.8
25/08:00am 12.9 4.6 10.1 83 1.4 SSW 44 59 24 32 - - 0.8
25/07:32am 13.2 5.1 10.0 81 1.6 SSW 43 61 23 33 - - 0.8
25/07:30am 13.2 5.1 10.0 81 1.6 SSW 43 57 23 31 - - 0.8
25/07:01am 13.2 5.9 10.2 82 1.6 SSW 39 61 21 33 - - 0.8
25/07:00am 13.1 5.8 10.1 82 1.5 SSW 39 57 21 31 - - 0.8
25/06:34am 12.7 5.3 9.7 82 1.5 SSW 39 57 21 31 - - 0.6
25/06:30am 12.8 5.8 9.8 82 1.5 SSW 37 54 20 29 - - 0.6
25/06:07am 12.8 5.3 9.4 80 1.7 S 39 57 21 31 - - 0.6
25/06:00am 13.0 5.1 9.4 79 1.8 SSW 41 56 22 30 - - 0.6
25/05:30am 13.6 5.7 9.3 75 2.2 SSW 41 52 22 28 - - 0.6
25/05:00am 13.6 6.8 9.1 74 2.3 SSW 35 56 19 30 - - 0.6
25/04:34am 13.7 6.1 9.0 73 2.4 SSW 39 63 21 34 - - 0.6
25/04:30am 13.6 6.3 8.7 72 2.5 SSW 37 50 20 27 - - 0.6
25/04:00am 13.5 5.8 8.6 72 2.5 S 39 50 21 27 - - 0.6
25/03:30am 13.7 6.4 8.7 72 2.5 SSW 37 56 20 30 - - 0.6
25/03:01am 13.7 6.0 8.5 71 2.6 SSW 39 57 21 31 - - 0.6
25/03:00am 13.8 5.7 8.8 72 2.5 SSW 41 57 22 31 - - 0.6
25/02:35am 13.7 5.6 8.5 71 2.6 SSW 41 59 22 32 - - 0.6
25/02:30am 13.7 5.1 8.7 72 2.5 SSW 44 61 24 33 - - 0.6
25/02:12am 13.4 4.0 8.9 74 2.3 S 48 67 26 36 - - 0.6
25/02:00am 13.0 3.6 8.7 75 2.2 SSW 48 63 26 34 - - 0.6
25/01:36am 13.1 3.8 9.0 76 2.1 S 48 67 26 36 - - 0.6
25/01:30am 13.2 3.1 9.1 76 2.1 S 52 67 28 36 - - 0.6
25/01:00am 12.6 2.0 8.5 76 2.0 S 54 80 29 43 - - 0.6
25/12:30am 13.4 2.8 8.5 72 2.4 S 54 72 29 39 - - 0.6
25/12:00am 13.1 3.7 8.8 75 2.2 S 48 69 26 37 - - 0.6
 
Date/Time
EST
Temp
°C
App
Temp
°C
Dew
Point
°C
Rel
Hum
%
Delta-T
°C
Wind Press
QNH
hPa
Press
MSL
hPa
Rain since
9am
mm
Dir  Spd
km/h
Gust
km/h
Spd
kts
Gust
kts
24/11:33pm 12.9 4.5 9.0 77 2.0 S 43 63 23 34 - - 0.6
24/11:30pm 12.9 4.3 9.0 77 2.0 S 44 63 24 34 - - 0.6
24/11:07pm 13.2 5.6 8.9 75 2.2 S 39 63 21 34 - - 0.6
24/11:00pm 13.1 5.9 9.0 76 2.1 S 37 50 20 27 - - 0.6
24/10:52pm 13.1 5.5 9.0 76 2.1 S 39 59 21 32 - - 0.6
24/10:30pm 13.3 6.3 8.6 73 2.4 S 35 48 19 26 - - 0.6
24/10:11pm 13.8 7.7 8.2 69 2.8 SSW 30 50 16 27 - - 0.6
24/10:00pm 13.7 9.2 8.7 72 2.5 SSW 22 41 12 22 - - 0.6
24/09:30pm 14.4 6.7 8.8 69 2.8 S 39 59 21 32 - - 0.6
24/09:13pm 14.1 6.1 9.1 72 2.5 S 41 67 22 36 - - 0.6
24/09:00pm 13.7 5.9 9.7 77 2.1 S 41 57 22 31 - - 0.6
24/08:30pm 13.3 5.4 9.4 77 2.0 S 41 57 22 31 - - 0.2
24/08:00pm 13.7 3.6 9.0 73 2.4 S 52 70 28 38 - - 0.0
24/07:41pm 14.9 5.6 7.5 61 3.7 S 46 67 25 36 - - 0.0
24/07:30pm 15.2 6.5 7.7 61 3.7 S 43 56 23 30 - - 0.0
24/07:00pm 15.4 7.5 7.9 61 3.8 S 39 56 21 30 - - 0.0
24/06:30pm 15.4 8.4 6.9 57 4.2 S 33 44 18 24 - - 0.0
24/06:13pm 15.4 9.1 7.2 58 4.0 S 30 50 16 27 - - 0.0
24/06:00pm 15.6 8.5 7.9 60 3.9 S 35 52 19 28 - - 0.0
24/05:30pm 15.8 7.5 7.8 59 4.0 S 41 56 22 30 - - 0.0
24/05:00pm 15.7 7.1 8.2 61 3.8 SSW 43 61 23 33 - - 0.0
24/04:39pm 15.7 7.4 7.7 59 4.0 S 41 59 22 32 - - 0.0
24/04:30pm 15.7 6.8 7.5 58 4.1 S 44 57 24 31 - - 0.0
24/04:00pm 16.3 6.7 8.0 58 4.2 S 48 76 26 41 - - 0.0
24/03:31pm 16.3 6.9 8.8 61 3.8 S 48 67 26 36 - - 0.0
24/03:30pm 16.3 6.5 8.8 61 3.8 S 50 67 27 36 - - 0.0
24/03:00pm 16.4 5.6 9.3 63 3.7 S 56 78 30 42 - - 0.0
24/02:30pm 16.6 7.7 9.1 61 3.9 S 46 69 25 37 - - 0.0
24/02:00pm 16.7 7.2 8.4 58 4.2 S 48 69 26 37 - - 0.0
24/01:30pm 16.6 5.4 8.3 58 4.2 S 57 82 31 44 - - 0.0
24/01:00pm 16.8 5.7 8.8 59 4.1 S 57 78 31 42 - - 0.0
24/12:30pm 16.6 7.3 9.1 61 3.9 S 48 69 26 37 - - 0.0
24/12:06pm 16.7 6.0 9.4 62 3.8 S 56 76 30 41 - - 0.0
24/12:00pm 16.6 5.6 9.3 62 3.8 S 57 76 31 41 - - 0.0
24/11:30am 16.3 5.4 9.5 64 3.5 S 57 82 31 44 - - 0.0
24/11:11am 16.5 6.6 9.7 64 3.6 S 52 78 28 42 - - 0.0
24/11:09am 16.4 6.8 9.6 64 3.5 S 50 78 27 42 - - 0.0
24/11:00am 16.4 8.3 10.0 66 3.4 S 43 63 23 34 - - 0.0
24/10:31am 16.1 8.0 10.6 70 2.9 S 44 63 24 34 - - 0.0
24/10:30am 16.0 7.4 10.3 69 3.0 S 46 63 25 34 - - 0.0
24/10:00am 15.9 6.6 10.7 71 2.8 S 50 72 27 39 - - 0.0
24/09:30am 15.3 6.5 11.1 76 2.2 SSW 48 70 26 38 - - 0.0
24/09:00am 15.2 6.7 10.6 74 2.4 SSW 46 67 25 36 - - 0.0
24/08:34am 15.6 7.9 10.2 70 2.8 S 41 65 22 35 - - 0.0
24/08:30am 15.6 8.7 10.2 70 2.8 S 37 52 20 28 - - 0.0
24/08:23am 15.7 7.6 10.2 70 2.9 S 43 61 23 33 - - 0.0
24/08:00am 15.3 7.2 9.9 70 2.8 SSW 43 59 23 32 - - 0.0
24/07:31am 15.1 8.1 8.6 65 3.3 SSW 35 54 19 29 - - 0.0
24/07:30am 15.2 8.3 8.9 66 3.2 SSW 35 54 19 29 - - 0.0
24/07:04am 15.0 8.9 8.3 64 3.4 SSW 30 50 16 27 - - 0.0
24/07:00am 15.0 8.5 8.0 63 3.5 SSW 32 46 17 25 - - 0.0
24/06:30am 15.3 7.9 8.5 64 3.4 SSW 37 56 20 30 - - 0.0
24/06:05am 15.4 8.8 8.6 64 3.5 SSW 33 52 18 28 - - 0.0
24/06:00am 15.4 8.4 8.4 63 3.5 SSW 35 48 19 26 - - 0.0
24/05:45am 15.4 8.3 8.2 62 3.6 SSW 35 54 19 29 - - 0.0
24/05:30am 15.4 8.0 8.2 62 3.6 SSW 37 54 20 29 - - 0.0
24/05:08am 15.4 7.5 7.7 60 3.8 SSW 39 57 21 31 - - 0.0
24/05:00am 15.4 6.7 7.9 61 3.8 SSW 43 57 23 31 - - 0.0
24/04:30am 15.4 6.1 7.7 60 3.8 S 46 76 25 41 - - 0.0
24/04:00am 15.6 5.2 7.9 60 3.9 S 52 74 28 40 - - 0.0
24/03:30am 15.7 5.7 8.0 60 3.9 S 50 70 27 38 - - 0.0
24/03:00am 15.8 7.0 8.1 60 3.9 S 44 69 24 37 - - 0.0
24/02:30am 15.8 6.9 7.6 58 4.1 S 44 70 24 38 - - 0.0
24/02:01am 15.8 7.5 7.8 59 4.0 SSW 41 59 22 32 - - 0.0
24/02:00am 15.8 7.1 7.8 59 4.0 SSW 43 59 23 32 - - 0.0
24/01:49am 15.8 8.2 7.6 58 4.1 SSW 37 57 20 31 - - 0.0
24/01:30am 15.9 8.8 7.9 59 4.0 SSW 35 50 19 27 - - 0.0
24/01:07am 16.0 8.8 7.7 58 4.2 SSW 35 54 19 29 - - 0.0
24/01:00am 15.9 9.1 7.7 58 4.1 SSW 33 48 18 26 - - 0.0
24/12:30am 16.1 8.6 8.1 59 4.0 SSW 37 57 20 31 - - 0.0
24/12:27am 16.0 8.8 7.7 58 4.2 SSW 35 57 19 31 - - 0.0
24/12:00am 16.0 9.3 8.0 59 4.0 SSW 33 46 18 25 - - 0.0
 
Date/Time
EST
Temp
°C
App
Temp
°C
Dew
Point
°C
Rel
Hum
%
Delta-T
°C
Wind Press
QNH
hPa
Press
MSL
hPa
Rain since
9am
mm
Dir  Spd
km/h
Gust
km/h
Spd
kts
Gust
kts
23/11:44pm 16.0 10.3 8.2 60 3.9 SSW 28 48 15 26 - - 0.0
23/11:30pm 16.0 9.3 8.2 60 3.9 SSW 33 46 18 25 - - 0.0
23/11:00pm 16.0 9.3 8.2 60 3.9 SSW 33 52 18 28 - - 0.0
23/10:57pm 15.8 9.3 8.1 60 3.9 SSW 32 52 17 28 - - 0.0
23/10:30pm 15.6 9.2 8.4 62 3.6 SSW 32 46 17 25 - - 0.0
23/10:00pm 15.3 8.5 9.2 67 3.1 SSW 35 54 19 29 - - 0.0
23/09:59pm 15.0 8.1 8.7 66 3.2 SSW 35 54 19 29 - - 0.0
23/09:30pm 14.4 8.6 9.4 72 2.6 SSW 30 46 16 25 - - 0.0
23/09:15pm 14.3 8.8 9.1 71 2.6 SSW 28 48 15 26 - - 0.0
23/09:00pm 14.4 9.3 9.2 71 2.7 SSW 26 39 14 21 - - 0.0
23/08:30pm 14.8 9.9 8.5 66 3.2 SSW 24 41 13 22 - - 0.0
23/08:00pm 14.9 9.7 8.8 67 3.1 SSW 26 37 14 20 - - 0.0
23/07:30pm 15.4 10.1 8.6 64 3.5 SSW 26 35 14 19 - - 0.0
23/07:00pm 15.7 10.9 8.7 63 3.6 SSW 24 41 13 22 - - 0.0
23/06:30pm 15.2 10.4 8.7 65 3.3 SW 24 41 13 22 - - 0.0
23/06:00pm 14.8 10.4 9.0 68 3.0 SSW 22 33 12 18 - - 0.0
23/05:30pm 15.1 10.7 9.0 67 3.1 SSW 22 32 12 17 - - 0.0
23/05:00pm 16.0 10.8 9.0 63 3.6 SSW 26 43 14 23 - - 0.0
23/04:45pm 16.3 10.2 8.3 59 4.1 SSW 30 50 16 27 - - 0.0
23/04:30pm 16.7 11.9 8.7 59 4.1 SSW 24 37 13 20 - - 0.0
23/04:00pm 16.6 12.5 8.6 59 4.1 SSW 20 35 11 19 - - 0.0
23/03:30pm 16.5 13.3 8.5 59 4.1 SW 15 28 8 15 - - 0.0
23/03:00pm 16.4 12.5 8.6 60 4.0 SSW 19 33 10 18 - - 0.0
23/02:30pm 16.6 12.7 8.8 60 4.0 SSW 19 30 10 16 - - 0.0
23/02:00pm 16.0 12.0 9.2 64 3.5 SW 20 37 11 20 - - 0.0
23/01:30pm 15.3 11.2 10.1 71 2.7 SSW 22 37 12 20 - - 0.0
23/01:00pm 15.2 10.6 9.8 70 2.8 SSW 24 41 13 22 - - 0.0
23/12:30pm 16.2 10.3 8.9 62 3.7 SSW 30 46 16 25 - - 0.0
23/12:00pm 17.1 10.2 8.8 58 4.3 SSW 35 57 19 31 - - 0.0
23/11:33am 16.1 10.2 9.1 63 3.6 SSW 30 59 16 32 - - 0.0
23/11:30am 16.2 10.6 8.7 61 3.8 SSW 28 46 15 25 - - 0.0
23/11:05am 15.9 10.3 8.9 63 3.6 SSW 28 52 15 28 - - 0.0
23/11:00am 15.8 10.3 9.0 64 3.5 SSW 28 41 15 22 - - 0.0

Other formats

Comma delimited format used in spreadsheet applications
http://www.bom.gov.au/fwo/IDN60801/IDN60801.95749.axf

JavaScript Object Notation format (JSON) in row-major order
http://www.bom.gov.au/fwo/IDN60801/IDN60801.95749.json

Data quality

Most of these data are generated automatically and are frequently updated. Quality checks on data are not normally performed. It is possible for incorrect values to appear. Refer to information at About Latest Weather Observations and please check the disclaimer before using these data.